Albany, New York
Traffic Map
Current Weather Conditions
Albany, New York
Few Clouds
Few Clouds
53°
Feels Like: 53°
Wind Chill: 53° Ceiling: Unl
Heat Index: 53° Visibility: 10mi
Dew Point: 49° Wind: 0mph
Humidity: 86% Direction: ° ()
Pressure: 30.43in Gusts: 0mph
Raw Report DataKALB 240351Z 00000KT 10SM FEW050 12/09 A3043 RMK AO2 SLP306 T01170094 $
Traffic Incident Summary
Active as of:
Severity:
Category:
InformationThere was an issue retrieving the traffic information for this location. Please try a different location or try again shortly.
Advertisements
Track Severe Weather on mobile